Johann Essberger — CQKG — position and weather

sailwx.info

Track history (hours):
 
Tides and Currents Weather Stations Pressure Air Temp Water Temp Dewpoint Dewpoint Depression Visibility Wind Speed Wind Dir Waves Ship Positions

Johann Essberger

Last reported at 2015-Aug-04 09:31 UTC. Time now 2015-Aug-04 09:43 UTC.
Position N 49°30' W 000°04'.

Length 98 m; draft 6.7 m.

Type: Ship (hazmat cat C). MMSI: 255804460.

Date/timePositionNaut miles runAvg speedWind from/ knotsBaromVisibWave heightAir tempDewpointWater temp
2015-Aug-04 09:31N 49°30' W 000°04'0 0.0
2015-Aug-04 08:33N 49°30' W 000°04'0 0.1
2015-Aug-04 07:32N 49°30' W 000°04'0 0.1
2015-Aug-04 06:32N 49°30' W 000°04'0 0.0
2015-Aug-04 05:31N 49°30' W 000°04'0 0.0
2015-Aug-04 04:33N 49°30' W 000°04'0 0.1
2015-Aug-04 03:33N 49°30' W 000°04'0 0.1
2015-Aug-04 02:34N 49°30' W 000°04'0 0.0
2015-Aug-04 01:32N 49°30' W 000°04'0 0.0
2015-Aug-04 00:31N 49°30' W 000°04'0 0.0
2015-Aug-03 23:33N 49°30' W 000°04'0 0.0
2015-Aug-03 22:33N 49°30' W 000°04'0 0.1
2015-Aug-03 21:33N 49°30' W 000°04'0 0.0
2015-Aug-03 20:31N 49°30' W 000°04'0 0.1
2015-Aug-03 19:31N 49°30' W 000°04'5 5.3
2015-Aug-03 18:34N 49°32' W 000°11'1211.7
2015-Aug-03 17:33N 49°44' W 000°11'5310.2
2015-Aug-03 12:21N 50°33' E 000°18'7 9.4
2015-Aug-03 11:33N 50°37' E 000°29'9 9.0
2015-Aug-03 10:33N 50°42' E 000°41'1010.1
2015-Aug-03 09:33N 50°47' E 000°54'1212.2
2015-Aug-03 08:33N 50°54' E 001°10'1313.1
2015-Aug-03 07:33N 51°03' E 001°26'1212.0
2015-Aug-03 06:33N 51°11' E 001°40'1010.2
2015-Aug-03 05:33N 51°19' E 001°49'9 9.3
2015-Aug-03 04:33N 51°27' E 001°56'9 8.9
2015-Aug-03 03:33N 51°35' E 002°05'9 9.4
2015-Aug-03 02:33N 51°41' E 002°16'10 9.9
2015-Aug-03 01:33N 51°49' E 002°26'1111.3
2015-Aug-03 00:33N 51°57' E 002°39'1312.5
2015-Aug-02 23:33N 52°06' E 002°52'1313.3
2015-Aug-02 22:33N 52°17' E 003°06'1913.2
2015-Aug-02 21:06N 52°32' E 003°24'2111.8
2015-Aug-02 19:17N 52°49' E 003°46'810.7
2015-Aug-02 18:33N 52°55' E 003°54'1110.3
2015-Aug-02 17:32N 53°03' E 004°07'1010.3
2015-Aug-02 16:33N 53°09' E 004°20'1010.2
2015-Aug-02 15:33N 53°18' E 004°28'1111.5
2015-Aug-02 14:33N 53°28' E 004°38'1312.4
2015-Aug-02 13:32N 53°33' E 004°57'1212.3
2015-Aug-02 12:34N 53°37' E 005°16'1211.7
2015-Aug-02 11:34N 53°41' E 005°34'1110.8
2015-Aug-02 10:34N 53°44' E 005°52'31 9.9
2015-Aug-02 07:24N 53°53' E 006°42'1614.1
2015-Aug-02 06:17N 53°58' E 007°08'5 7.1
2015-Aug-02 05:32N 53°59' E 007°17'1212.2
2015-Aug-02 04:34N 54°02' E 007°37'1312.6
2015-Aug-02 03:33N 54°02' E 007°58'1212.3
2015-Aug-02 02:33N 54°00' E 008°19'1413.6
2015-Aug-02 01:33N 53°55' E 008°40'10 9.6
2015-Aug-02 00:33N 53°51' E 008°55'9 8.7
2015-Aug-01 23:32N 53°54' E 009°09'17 5.8
2015-Aug-01 20:34N 54°09' E 009°22'8 7.9
2015-Aug-01 19:33N 54°12' E 009°34'8 7.6
2015-Aug-01 18:32N 54°19' E 009°43'7 6.9
2015-Aug-01 17:33N 54°21' E 009°53'6 6.1
2015-Aug-01 16:33N 54°22' E 010°04'2 2.2
2015-Aug-01 15:32N 54°22' E 010°08'0 0.0
2015-Aug-01 14:32N 54°22' E 010°08'1 0.5
2015-Aug-01 13:33N 54°22' E 010°09'2 2.2
2015-Aug-01 12:33N 54°23' E 010°12'1110.7
2015-Aug-01 11:33N 54°32' E 010°24'1611.4
2015-Aug-01 10:10N 54°35' E 010°50'711.2
2015-Aug-01 09:33N 54°36' E 011°02'1211.5
2015-Aug-01 08:33N 54°33' E 011°21'1111.1
2015-Aug-01 07:33N 54°29' E 011°38'1110.7
2015-Aug-01 06:33N 54°26' E 011°56'1010.0
2015-Aug-01 05:31N 54°31' E 012°12'5511.1
2015-Aug-01 00:33N 54°58' E 013°35'1111.3
2015-Jul-31 23:33N 55°02' E 013°53'1110.8
2015-Jul-31 22:33N 55°08' E 014°09'1111.4
2015-Jul-31 21:33N 55°17' E 014°21'1111.4
2015-Jul-31 20:33N 55°26' E 014°34'1111.3
2015-Jul-31 19:33N 55°32' E 014°51'1111.1
2015-Jul-31 18:32N 55°38' E 015°09'1111.0
2015-Jul-31 17:30N 55°43' E 015°26'34510.7
2015-Jul-30 09:19N 59°38' E 023°20'810.7
2015-Jul-30 08:33N 59°40' E 023°35'1310.8
2015-Jul-30 07:24N 59°44' E 023°59'3211.1
2015-Jul-30 04:33N 59°52' E 024°60'  
2015-Jul-26 22:19N 60°01' E 025°53'912.0
2015-Jul-26 21:33N 60°06' E 026°08'1211.6
2015-Jul-26 20:33N 60°14' E 026°25'1313.2
2015-Jul-26 19:33N 60°23' E 026°45'6 5.9
2015-Jul-26 18:32N 60°26' E 026°55'1 0.0
2015-Jul-25 15:33N 60°25' E 026°55'1212.2
2015-Jul-25 14:33N 60°18' E 026°34'9 8.9
2015-Jul-25 13:33N 60°12' E 026°23'4 4.3
2015-Jul-25 12:33N 60°08' E 026°18'7 6.5
2015-Jul-25 11:33N 60°03' E 026°10'7 6.9
2015-Jul-25 10:32N 59°57' E 026°02'1211.5
2015-Jul-25 09:32N 59°52' E 025°41'  
Track history (hours):
 
Tides and Currents Weather Stations Pressure Air Temp Water Temp Dewpoint Dewpoint Depression Visibility Wind Speed Wind Dir Waves Ship Positions

Johann Essberger

Last reported at 2015-Aug-04 09:31 UTC. Time now 2015-Aug-04 09:43 UTC.
Position N 49°30' W 000°04'.

Length 98 m; draft 6.7 m.

Type: Ship (hazmat cat C). MMSI: 255804460.

Date/timePositionNaut miles runAvg speedWind from/ knotsBaromVisibWave heightAir tempDewpointWater temp
2015-Aug-04 09:31N 49°30' W 000°04'0 0.0
2015-Aug-04 08:33N 49°30' W 000°04'0 0.1
2015-Aug-04 07:32N 49°30' W 000°04'0 0.1
2015-Aug-04 06:32N 49°30' W 000°04'0 0.0
2015-Aug-04 05:31N 49°30' W 000°04'0 0.0
2015-Aug-04 04:33N 49°30' W 000°04'0 0.1
2015-Aug-04 03:33N 49°30' W 000°04'0 0.1
2015-Aug-04 02:34N 49°30' W 000°04'0 0.0
2015-Aug-04 01:32N 49°30' W 000°04'0 0.0
2015-Aug-04 00:31N 49°30' W 000°04'0 0.0
2015-Aug-03 23:33N 49°30' W 000°04'0 0.0
2015-Aug-03 22:33N 49°30' W 000°04'0 0.1
2015-Aug-03 21:33N 49°30' W 000°04'0 0.0
2015-Aug-03 20:31N 49°30' W 000°04'0 0.1
2015-Aug-03 19:31N 49°30' W 000°04'5 5.3
2015-Aug-03 18:34N 49°32' W 000°11'1211.7
2015-Aug-03 17:33N 49°44' W 000°11'5310.2
2015-Aug-03 12:21N 50°33' E 000°18'7 9.4
2015-Aug-03 11:33N 50°37' E 000°29'9 9.0
2015-Aug-03 10:33N 50°42' E 000°41'1010.1
2015-Aug-03 09:33N 50°47' E 000°54'1212.2
2015-Aug-03 08:33N 50°54' E 001°10'1313.1
2015-Aug-03 07:33N 51°03' E 001°26'1212.0
2015-Aug-03 06:33N 51°11' E 001°40'1010.2
2015-Aug-03 05:33N 51°19' E 001°49'9 9.3
2015-Aug-03 04:33N 51°27' E 001°56'9 8.9
2015-Aug-03 03:33N 51°35' E 002°05'9 9.4
2015-Aug-03 02:33N 51°41' E 002°16'10 9.9
2015-Aug-03 01:33N 51°49' E 002°26'1111.3
2015-Aug-03 00:33N 51°57' E 002°39'1312.5
2015-Aug-02 23:33N 52°06' E 002°52'1313.3
2015-Aug-02 22:33N 52°17' E 003°06'1913.2
2015-Aug-02 21:06N 52°32' E 003°24'2111.8
2015-Aug-02 19:17N 52°49' E 003°46'810.7
2015-Aug-02 18:33N 52°55' E 003°54'1110.3
2015-Aug-02 17:32N 53°03' E 004°07'1010.3
2015-Aug-02 16:33N 53°09' E 004°20'1010.2
2015-Aug-02 15:33N 53°18' E 004°28'1111.5
2015-Aug-02 14:33N 53°28' E 004°38'1312.4
2015-Aug-02 13:32N 53°33' E 004°57'1212.3
2015-Aug-02 12:34N 53°37' E 005°16'1211.7
2015-Aug-02 11:34N 53°41' E 005°34'1110.8
2015-Aug-02 10:34N 53°44' E 005°52'31 9.9
2015-Aug-02 07:24N 53°53' E 006°42'1614.1
2015-Aug-02 06:17N 53°58' E 007°08'5 7.1
2015-Aug-02 05:32N 53°59' E 007°17'1212.2
2015-Aug-02 04:34N 54°02' E 007°37'1312.6
2015-Aug-02 03:33N 54°02' E 007°58'1212.3
2015-Aug-02 02:33N 54°00' E 008°19'1413.6
2015-Aug-02 01:33N 53°55' E 008°40'10 9.6
2015-Aug-02 00:33N 53°51' E 008°55'9 8.7
2015-Aug-01 23:32N 53°54' E 009°09'17 5.8
2015-Aug-01 20:34N 54°09' E 009°22'8 7.9
2015-Aug-01 19:33N 54°12' E 009°34'8 7.6
2015-Aug-01 18:32N 54°19' E 009°43'7 6.9
2015-Aug-01 17:33N 54°21' E 009°53'6 6.1
2015-Aug-01 16:33N 54°22' E 010°04'2 2.2
2015-Aug-01 15:32N 54°22' E 010°08'0 0.0
2015-Aug-01 14:32N 54°22' E 010°08'1 0.5
2015-Aug-01 13:33N 54°22' E 010°09'2 2.2
2015-Aug-01 12:33N 54°23' E 010°12'1110.7
2015-Aug-01 11:33N 54°32' E 010°24'1611.4
2015-Aug-01 10:10N 54°35' E 010°50'711.2
2015-Aug-01 09:33N 54°36' E 011°02'1211.5
2015-Aug-01 08:33N 54°33' E 011°21'1111.1
2015-Aug-01 07:33N 54°29' E 011°38'1110.7
2015-Aug-01 06:33N 54°26' E 011°56'1010.0
2015-Aug-01 05:31N 54°31' E 012°12'5511.1
2015-Aug-01 00:33N 54°58' E 013°35'1111.3
2015-Jul-31 23:33N 55°02' E 013°53'1110.8
2015-Jul-31 22:33N 55°08' E 014°09'1111.4
2015-Jul-31 21:33N 55°17' E 014°21'1111.4
2015-Jul-31 20:33N 55°26' E 014°34'1111.3
2015-Jul-31 19:33N 55°32' E 014°51'1111.1
2015-Jul-31 18:32N 55°38' E 015°09'1111.0
2015-Jul-31 17:30N 55°43' E 015°26'34510.7
2015-Jul-30 09:19N 59°38' E 023°20'810.7
2015-Jul-30 08:33N 59°40' E 023°35'1310.8
2015-Jul-30 07:24N 59°44' E 023°59'3211.1
2015-Jul-30 04:33N 59°52' E 024°60'  
2015-Jul-26 22:19N 60°01' E 025°53'912.0
2015-Jul-26 21:33N 60°06' E 026°08'1211.6
2015-Jul-26 20:33N 60°14' E 026°25'1313.2
2015-Jul-26 19:33N 60°23' E 026°45'6 5.9
2015-Jul-26 18:32N 60°26' E 026°55'1 0.0
2015-Jul-25 15:33N 60°25' E 026°55'1212.2
2015-Jul-25 14:33N 60°18' E 026°34'9 8.9
2015-Jul-25 13:33N 60°12' E 026°23'4 4.3
2015-Jul-25 12:33N 60°08' E 026°18'7 6.5
2015-Jul-25 11:33N 60°03' E 026°10'7 6.9
2015-Jul-25 10:32N 59°57' E 026°02'1211.5
2015-Jul-25 09:32N 59°52' E 025°41'  

Dump ship's entire track history